createdAt,value
2023-01-29T00:07:13.136Z,3.30
2023-01-29T00:17:17.669Z,2.83
2023-01-29T00:27:21.363Z,2.15
2023-01-29T00:37:25.825Z,2.63
2023-01-29T00:47:33.840Z,2.38
2023-01-29T00:57:41.540Z,3.05
2023-01-29T01:07:44.955Z,4.55
2023-01-29T01:17:53.164Z,4.50
2023-01-29T01:38:02.917Z,5.00
2023-01-29T01:48:11.676Z,4.18
2023-01-29T01:58:23.477Z,5.97
2023-01-29T02:08:55.136Z,6.57
2023-01-29T02:18:59.854Z,7.15
2023-01-29T02:29:30.773Z,7.03
2023-01-29T02:39:41.806Z,7.32
2023-01-29T02:49:52.648Z,9.70
2023-01-29T02:59:59.647Z,8.32
2023-01-29T03:10:07.412Z,8.38
2023-01-29T03:20:17.648Z,7.53
2023-01-29T03:30:44.441Z,7.70
2023-01-29T03:40:53.067Z,10.00
2023-01-29T03:51:08.112Z,10.38
2023-01-29T04:01:17.237Z,10.15
2023-01-29T04:11:23.724Z,9.15
2023-01-29T04:21:27.337Z,9.55
2023-01-29T04:31:39.140Z,7.82
2023-01-29T04:41:51.939Z,9.40
2023-01-29T04:52:06.073Z,8.10
2023-01-29T05:02:11.321Z,8.68
2023-01-29T05:12:19.552Z,7.35
2023-01-29T05:22:23.520Z,6.47
2023-01-29T05:32:27.917Z,8.23
2023-01-29T05:42:31.135Z,7.78
2023-01-29T05:52:40.014Z,8.45
2023-01-29T06:02:43.841Z,7.97
2023-01-29T06:12:48.721Z,7.47
2023-01-29T06:22:51.634Z,9.05
2023-01-29T06:32:59.107Z,6.00
2023-01-29T06:43:02.130Z,5.55
2023-01-29T06:53:06.494Z,6.75
2023-01-29T07:03:11.341Z,5.28
2023-01-29T07:13:16.183Z,5.60
2023-01-29T07:23:19.549Z,5.20
2023-01-29T07:33:24.003Z,4.60
2023-01-29T07:43:27.402Z,6.68
2023-01-29T07:53:32.135Z,5.15
2023-01-29T08:03:35.210Z,4.35
2023-01-29T08:13:47.548Z,3.20
2023-01-29T08:23:50.584Z,4.30
2023-01-29T08:33:55.972Z,4.57
2023-01-29T08:44:00.744Z,3.28
2023-01-29T08:54:05.174Z,2.53
2023-01-29T09:04:08.247Z,4.22
2023-01-29T09:14:14.719Z,4.35
2023-01-29T09:24:17.923Z,3.60
2023-01-29T09:34:22.753Z,3.55
2023-01-29T09:44:46.483Z,3.00
2023-01-29T09:54:58.607Z,2.92
2023-01-29T10:05:20.633Z,2.25
2023-01-29T10:15:43.461Z,2.95
2023-01-29T10:25:50.204Z,1.63
2023-01-29T10:35:59.888Z,1.75
2023-01-29T10:46:16.490Z,2.38
2023-01-29T10:56:48.072Z,3.08
2023-01-29T11:07:00.447Z,2.38
2023-01-29T11:17:33.697Z,2.22
2023-01-29T11:27:43.444Z,3.13
2023-01-29T11:37:48.708Z,3.47
2023-01-29T11:47:57.700Z,2.33
2023-01-29T11:58:06.774Z,1.55
2023-01-29T12:08:18.466Z,3.30
2023-01-29T12:18:34.993Z,3.17
2023-01-29T12:28:48.255Z,3.70
2023-01-29T12:38:52.903Z,2.60
2023-01-29T12:49:04.141Z,2.80
2023-01-29T12:59:19.260Z,4.07
2023-01-29T13:09:26.704Z,3.50
2023-01-29T13:19:35.413Z,3.65
2023-01-29T13:29:38.415Z,3.15
2023-01-29T13:39:50.097Z,2.83
2023-01-29T13:50:07.408Z,3.23
2023-01-29T14:00:50.846Z,5.35
2023-01-29T14:11:37.030Z,4.10
2023-01-29T14:22:00.020Z,3.35
2023-01-29T14:32:15.915Z,3.92
2023-01-29T14:42:24.384Z,3.28
2023-01-29T14:52:37.812Z,3.72
2023-01-29T15:02:45.040Z,2.85
2023-01-29T15:12:53.010Z,2.33
2023-01-29T15:22:57.733Z,3.78
2023-01-29T15:33:02.846Z,2.58
2023-01-29T15:43:21.923Z,2.83
2023-01-29T15:53:30.097Z,2.85
2023-01-29T16:03:37.918Z,3.50
2023-01-29T16:13:47.520Z,4.20
2023-01-29T16:23:57.728Z,2.95
2023-01-29T16:34:10.330Z,3.50
2023-01-29T16:44:38.081Z,4.18
2023-01-29T16:54:45.435Z,3.72
2023-01-29T17:05:06.891Z,2.22
2023-01-29T17:15:40.139Z,2.42
2023-01-29T17:25:45.682Z,3.58
2023-01-29T17:35:50.007Z,3.22
2023-01-29T17:45:54.642Z,2.80
2023-01-29T17:55:57.758Z,3.58
2023-01-29T18:06:02.207Z,4.90
2023-01-29T18:16:05.700Z,3.50
2023-01-29T18:26:13.129Z,2.88
2023-01-29T18:36:16.187Z,3.70
2023-01-29T18:59:06.689Z,4.40
2023-01-29T19:09:04.659Z,3.38
2023-01-29T19:19:53.395Z,3.13
2023-01-29T19:30:06.844Z,3.97
2023-01-29T19:51:13.870Z,2.27
2023-01-29T20:11:54.846Z,5.03
2023-01-29T20:22:01.061Z,3.42
2023-01-29T20:32:13.108Z,3.05
2023-01-29T20:42:19.947Z,3.43
2023-01-29T21:04:32.272Z,5.43
2023-01-29T21:14:39.688Z,5.20
2023-01-29T21:24:46.437Z,6.45
2023-01-29T21:34:52.505Z,4.07
2023-01-29T21:45:01.708Z,5.53
2023-01-29T21:55:06.162Z,4.68
2023-01-29T22:05:19.462Z,5.15
2023-01-29T22:15:25.334Z,3.92
2023-01-29T22:25:30.426Z,5.18
2023-01-29T22:35:36.184Z,4.70
2023-01-29T22:45:44.905Z,6.13
2023-01-29T22:55:54.857Z,4.88
2023-01-29T23:05:59.374Z,5.40
2023-01-29T23:16:02.386Z,5.82
2023-01-29T23:26:29.316Z,7.30
2023-01-29T23:36:32.289Z,6.30
2023-01-29T23:46:36.961Z,4.75
2023-01-29T23:56:40.377Z,5.22
